Time;durP1;ratioP1;P1;durP2;ratioP2;P2;SDS_P1;SDS_P2;PMS_P1;PMS_P2;Temp;Humidity;BMP_temperature;BMP_pressure;BME280_temperature;BME280_humidity;BME280_pressure;Samples;Min_cycle;Max_cycle;Signal;HPM_P1;HPM_P2
2022/11/14 00:02:22;;;;;;;17.27;13.43;;;;;;;3.48;100.00;95462.72;4968362;28;20612;-81
2022/11/14 00:04:48;;;;;;;17.47;13.07;;;;;;;3.60;100.00;95454.97;4973652;28;20196;-81
2022/11/14 00:07:13;;;;;;;20.13;13.00;;;;;;;3.52;100.00;95451.31;4977585;28;20614;-82
2022/11/14 00:09:41;;;;;;;15.07;12.70;;;;;;;3.65;100.00;95452.91;4981477;28;20195;-82
2022/11/14 00:12:07;;;;;;;16.80;12.40;;;;;;;3.76;100.00;95459.03;4987006;28;20239;-83
2022/11/14 00:14:33;;;;;;;20.40;13.33;;;;;;;3.72;100.00;95463.59;4977432;28;20243;-81
2022/11/14 00:16:58;;;;;;;25.53;12.87;;;;;;;3.74;100.00;95455.78;4972720;28;20224;-82
2022/11/14 00:19:23;;;;;;;16.63;13.13;;;;;;;3.73;100.00;95449.00;4983550;28;20192;-82
2022/11/14 00:21:51;;;;;;;33.50;12.17;;;;;;;3.54;100.00;95446.91;4962847;28;20227;-81
2022/11/14 00:24:16;;;;;;;65.93;14.27;;;;;;;3.63;100.00;95459.09;4991677;28;20220;-82
2022/11/14 00:26:41;;;;;;;44.50;12.67;;;;;;;3.43;100.00;95465.59;4968359;28;20191;-82
2022/11/14 00:29:07;;;;;;;16.30;12.07;;;;;;;3.37;100.00;95463.47;4986960;28;20678;-82
2022/11/14 00:31:32;;;;;;;13.73;11.27;;;;;;;3.53;100.00;95456.31;4991715;28;20251;-82
2022/11/14 00:33:57;;;;;;;13.40;11.07;;;;;;;3.49;100.00;95460.03;4984689;28;20195;-82
2022/11/14 00:36:22;;;;;;;16.33;11.80;;;;;;;3.57;99.81;95459.50;4966957;28;20216;-81
2022/11/14 00:38:51;;;;;;;13.67;11.10;;;;;;;3.51;100.00;95463.31;4977595;28;20191;-82
2022/11/14 00:41:16;;;;;;;15.90;11.90;;;;;;;3.50;99.43;95456.53;4976021;28;20262;-82
2022/11/14 00:43:42;;;;;;;16.87;11.50;;;;;;;3.41;99.71;95458.00;4982024;28;20196;-82
2022/11/14 00:46:07;;;;;;;15.07;11.40;;;;;;;3.45;99.59;95455.25;4968291;28;20640;-82
2022/11/14 00:48:32;;;;;;;12.30;10.23;;;;;;;3.54;99.40;95454.59;4980448;28;20225;-82
2022/11/14 00:50:58;;;;;;;12.17;10.30;;;;;;;3.59;99.17;95467.94;4986295;28;20239;-82
2022/11/14 00:53:23;;;;;;;28.97;11.27;;;;;;;3.31;99.11;95469.84;4997899;28;20206;-82
2022/11/14 00:55:48;;;;;;;18.27;12.27;;;;;;;3.41;99.84;95457.19;4992434;28;20294;-81
2022/11/14 00:58:14;;;;;;;14.80;12.37;;;;;;;3.46;100.00;95452.56;4999809;28;20618;-82
2022/11/14 01:00:39;;;;;;;16.13;12.00;;;;;;;3.48;100.00;95450.72;4966663;28;20196;-81
2022/11/14 01:03:04;;;;;;;13.20;11.27;;;;;;;3.69;99.41;95456.91;4966713;28;20205;-81
2022/11/14 01:05:29;;;;;;;21.60;12.43;;;;;;;3.61;99.10;95451.47;4989378;28;20202;-81
2022/11/14 01:07:56;;;;;;;17.77;11.67;;;;;;;3.66;98.98;95449.41;4988442;28;20204;-81
2022/11/14 01:10:21;;;;;;;40.30;12.80;;;;;;;3.46;100.00;95434.59;4990445;28;20687;-82
2022/11/14 01:12:47;;;;;;;20.67;11.87;;;;;;;3.46;100.00;95426.06;4989240;28;20250;-82
2022/11/14 01:15:12;;;;;;;21.30;12.03;;;;;;;3.62;100.00;95418.91;4987979;28;20631;-81
2022/11/14 01:17:37;;;;;;;20.17;11.83;;;;;;;3.61;99.08;95428.38;4987963;28;20219;-82
2022/11/14 01:20:04;;;;;;;12.67;11.17;;;;;;;3.69;98.98;95423.50;4983140;28;20291;-81
2022/11/14 01:22:29;;;;;;;34.40;14.90;;;;;;;3.65;99.44;95426.41;4991283;28;20219;-82
2022/11/14 01:24:57;;;;;;;15.57;12.57;;;;;;;3.69;99.06;95431.22;4991652;28;20321;-81
2022/11/14 01:27:22;;;;;;;26.87;11.33;;;;;;;3.75;98.98;95429.16;4969725;28;20201;-81
2022/11/14 01:29:48;;;;;;;55.97;13.43;;;;;;;3.51;99.21;95419.66;4979561;28;20181;-81
2022/11/14 01:32:13;;;;;;;21.30;11.07;;;;;;;3.48;100.00;95419.91;4989357;28;20211;-81
2022/11/14 01:34:38;;;;;;;17.60;12.10;;;;;;;3.47;100.00;95417.44;4979828;28;20289;-81
2022/11/14 01:37:03;;;;;;;98.03;15.03;;;;;;;3.35;100.00;95413.97;4966204;28;20220;-81
2022/11/14 01:39:29;;;;;;;39.13;12.10;;;;;;;3.33;100.00;95410.69;4991320;28;20199;-81
2022/11/14 01:41:54;;;;;;;20.20;11.53;;;;;;;3.46;100.00;95398.66;4991795;28;20659;-81
2022/11/14 01:44:44;;;;;;;43.67;13.13;;;;;;;3.31;100.00;95400.53;4984067;28;20195;-81
2022/11/14 01:47:11;;;;;;;93.50;14.17;;;;;;;3.34;100.00;95392.63;4990392;28;20191;-81
2022/11/14 01:49:39;;;;;;;53.73;12.50;;;;;;;3.44;100.00;95377.38;4978413;28;20194;-80
2022/11/14 01:52:05;;;;;;;28.17;11.03;;;;;;;3.41;100.00;95383.56;4980817;28;20215;-80
2022/11/14 01:54:37;;;;;;;44.07;11.90;;;;;;;3.43;99.90;95373.19;4985515;28;20192;-81
2022/11/14 01:57:04;;;;;;;17.03;10.03;;;;;;;3.53;99.66;95375.91;5005283;28;20581;-81
2022/11/14 01:59:37;;;;;;;19.97;11.33;;;;;;;3.49;99.50;95370.19;4987755;28;20226;-81
2022/11/14 02:02:07;;;;;;;11.00;8.87;;;;;;;3.49;99.65;95370.19;4982070;28;20716;-82
2022/11/14 02:04:38;;;;;;;18.10;10.53;;;;;;;3.33;99.92;95364.50;4998286;28;20631;-82
2022/11/14 02:07:04;;;;;;;26.80;10.27;;;;;;;3.39;100.00;95358.94;4990515;28;20191;-82
2022/11/14 02:09:33;;;;;;;93.03;12.63;;;;;;;3.34;99.43;95364.38;4982331;28;20199;-82
2022/11/14 02:11:59;;;;;;;15.87;9.97;;;;;;;3.45;99.14;95357.69;4974759;28;20247;-82
2022/11/14 02:14:26;;;;;;;89.73;13.83;;;;;;;3.33;98.61;95349.91;4985531;28;20192;-82
2022/11/14 02:16:51;;;;;;;10.03;8.90;;;;;;;3.36;98.55;95349.72;4984895;28;20204;-81
2022/11/14 02:19:16;;;;;;;29.40;10.20;;;;;;;3.29;99.18;95345.94;4967318;28;20198;-82
2022/11/14 02:21:42;;;;;;;31.77;10.03;;;;;;;3.36;98.47;95343.75;4977896;28;20275;-82
2022/11/14 02:24:09;;;;;;;30.37;9.50;;;;;;;3.31;98.35;95343.25;4958424;28;20280;-82
2022/11/14 02:26:34;;;;;;;37.03;9.00;;;;;;;3.33;98.11;95343.97;4979586;28;20191;-81
2022/11/14 02:28:59;;;;;;;22.47;8.30;;;;;;;3.35;97.61;95349.81;4986490;28;20188;-81
2022/11/14 02:31:25;;;;;;;15.63;8.93;;;;;;;3.23;98.98;95343.78;4990294;28;20228;-82
2022/11/14 02:33:50;;;;;;;64.37;10.17;;;;;;;3.25;98.14;95341.13;4984803;28;20199;-82
2022/11/14 02:36:15;;;;;;;10.07;7.87;;;;;;;3.22;99.03;95347.28;4962782;28;20250;-82
2022/11/14 02:38:40;;;;;;;10.87;7.77;;;;;;;3.32;98.80;95347.47;4966431;28;20196;-82
2022/11/14 02:41:06;;;;;;;11.37;7.80;;;;;;;3.32;98.63;95348.28;4974727;28;20281;-82
2022/11/14 02:43:31;;;;;;;31.23;9.00;;;;;;;3.28;99.25;95356.31;4963772;28;20196;-82
2022/11/14 02:45:56;;;;;;;55.37;9.03;;;;;;;3.20;99.38;95361.16;4988541;28;20180;-81
2022/11/14 02:48:21;;;;;;;8.50;7.00;;;;;;;3.28;99.26;95362.28;4973821;28;20198;-81
2022/11/14 02:50:48;;;;;;;26.80;7.87;;;;;;;3.23;99.47;95361.75;4967224;28;20564;-80
2022/11/14 02:53:13;;;;;;;92.97;10.87;;;;;;;3.14;98.84;95354.69;4983813;28;20200;-80
2022/11/14 02:55:38;;;;;;;10.33;6.87;;;;;;;3.22;99.71;95347.28;4981123;28;20326;-81
2022/11/14 02:58:04;;;;;;;11.50;7.50;;;;;;;3.21;99.15;95350.78;4986022;28;20200;-81
2022/11/14 03:00:29;;;;;;;10.10;7.23;;;;;;;3.18;99.03;95345.03;4963074;28;20226;-82
2022/11/14 03:02:54;;;;;;;21.83;7.13;;;;;;;3.21;99.36;95335.38;4968328;28;20223;-81
2022/11/14 03:05:20;;;;;;;33.47;7.43;;;;;;;3.22;99.91;95338.78;4966599;28;20187;-80
2022/11/14 03:07:45;;;;;;;69.13;9.40;;;;;;;3.13;99.78;95333.34;4991657;28;20215;-81
2022/11/14 03:10:12;;;;;;;156.73;12.43;;;;;;;2.89;100.00;95329.13;4963322;28;20303;-81
2022/11/14 03:12:38;;;;;;;29.00;7.60;;;;;;;2.94;100.00;95332.19;4964042;28;20216;-81
2022/11/14 03:15:05;;;;;;;9.70;6.93;;;;;;;3.07;100.00;95333.78;4989370;28;20191;-81
2022/11/14 03:17:32;;;;;;;9.13;6.93;;;;;;;3.04;100.00;95334.00;4997796;28;20211;-81
2022/11/14 03:19:57;;;;;;;9.97;6.63;;;;;;;3.05;100.00;95330.50;4988110;28;20182;-81
2022/11/14 03:22:22;;;;;;;38.47;8.07;;;;;;;3.01;100.00;95328.28;4989209;28;20216;-80
2022/11/14 03:24:47;;;;;;;86.50;9.73;;;;;;;2.84;100.00;95326.88;4963557;28;20196;-80
2022/11/14 03:27:13;;;;;;;21.30;6.90;;;;;;;3.01;100.00;95325.72;4964986;28;20193;-80
2022/11/14 03:29:38;;;;;;;47.83;8.40;;;;;;;2.94;100.00;95334.75;4959109;28;20204;-81
2022/11/14 03:32:03;;;;;;;20.40;7.63;;;;;;;3.04;100.00;95333.19;4973720;28;20204;-81
2022/11/14 03:34:29;;;;;;;7.73;6.63;;;;;;;3.09;100.00;95329.38;4983094;28;20861;-81
2022/11/14 03:36:54;;;;;;;74.33;9.63;;;;;;;2.89;100.00;95329.94;4981549;28;20774;-81
2022/11/14 03:39:20;;;;;;;54.83;8.27;;;;;;;3.04;100.00;95331.44;4978923;28;20192;-81
2022/11/14 03:41:45;;;;;;;25.60;7.53;;;;;;;2.94;100.00;95322.75;5003261;28;20267;-82
2022/11/14 03:44:10;;;;;;;12.43;6.77;;;;;;;2.76;100.00;95326.59;4984639;28;20666;-81
2022/11/14 03:46:36;;;;;;;8.10;6.57;;;;;;;2.92;100.00;95319.47;4969251;28;20212;-81
2022/11/14 03:49:01;;;;;;;7.40;6.63;;;;;;;2.79;100.00;95322.06;4976184;28;20238;-82
2022/11/14 03:51:26;;;;;;;11.37;6.87;;;;;;;2.72;100.00;95318.28;4965475;28;20217;-81
2022/11/14 03:53:51;;;;;;;8.17;6.93;;;;;;;2.81;100.00;95316.81;4964262;28;20258;-81
2022/11/14 03:56:17;;;;;;;8.40;6.73;;;;;;;2.76;100.00;95306.06;4963037;28;20219;-81
2022/11/14 03:58:42;;;;;;;8.37;7.40;;;;;;;2.70;100.00;95307.31;4991657;28;20216;-81
2022/11/14 04:01:07;;;;;;;7.63;6.83;;;;;;;2.82;100.00;95295.38;4984621;28;20221;-82
2022/11/14 04:03:33;;;;;;;8.43;6.70;;;;;;;2.76;100.00;95294.06;5003530;28;20232;-81
2022/11/14 04:05:58;;;;;;;7.20;6.30;;;;;;;2.75;100.00;95286.50;5011307;28;20180;-81
2022/11/14 04:08:23;;;;;;;8.67;6.57;;;;;;;2.79;100.00;95283.59;4988883;28;20184;-81
2022/11/14 04:10:49;;;;;;;7.53;6.67;;;;;;;2.73;100.00;95280.63;5013355;28;20172;-80
2022/11/14 04:13:14;;;;;;;7.27;6.37;;;;;;;2.73;100.00;95288.31;4999695;28;20199;-81
2022/11/14 04:15:40;;;;;;;8.17;6.43;;;;;;;2.84;100.00;95285.84;4990743;28;20203;-81
2022/11/14 04:18:05;;;;;;;6.97;6.00;;;;;;;2.77;100.00;95284.63;4993735;28;20192;-81
2022/11/14 04:20:30;;;;;;;6.97;6.27;;;;;;;2.88;100.00;95279.56;4993297;28;20190;-81
2022/11/14 04:22:56;;;;;;;7.00;6.20;;;;;;;2.81;100.00;95279.16;4990749;28;20218;-82
2022/11/14 04:25:21;;;;;;;7.53;5.60;;;;;;;2.79;100.00;95278.47;4987258;28;20180;-80
2022/11/14 04:27:46;;;;;;;7.63;5.43;;;;;;;2.91;100.00;95291.34;4968536;28;20815;-81
2022/11/14 04:30:13;;;;;;;6.77;5.83;;;;;;;2.98;100.00;95290.81;4977474;28;20236;-81
2022/11/14 04:32:39;;;;;;;6.03;5.10;;;;;;;2.97;100.00;95299.44;4977993;28;20258;-81
2022/11/14 04:35:04;;;;;;;6.17;5.53;;;;;;;2.97;100.00;95291.75;4967424;28;20183;-81
2022/11/14 04:37:30;;;;;;;6.63;5.50;;;;;;;2.99;100.00;95295.00;4988433;28;20223;-81
2022/11/14 04:40:01;;;;;;;7.37;5.37;;;;;;;3.01;100.00;95293.19;4972437;28;20249;-80
2022/11/14 04:42:26;;;;;;;5.80;5.20;;;;;;;2.89;100.00;95294.03;4965533;28;20304;-81
2022/11/14 04:44:51;;;;;;;6.37;5.10;;;;;;;2.96;100.00;95290.09;4979100;28;20275;-82
2022/11/14 04:47:17;;;;;;;5.93;5.23;;;;;;;2.99;100.00;95289.88;4966653;28;20215;-81
2022/11/14 04:49:42;;;;;;;6.53;5.27;;;;;;;2.95;100.00;95282.53;4989805;28;20200;-82
2022/11/14 04:52:07;;;;;;;6.47;5.57;;;;;;;2.97;100.00;95288.34;4968440;28;20223;-81
2022/11/14 04:54:33;;;;;;;6.27;5.67;;;;;;;2.88;100.00;95286.44;4988716;28;20713;-82
2022/11/14 04:56:58;;;;;;;7.70;5.63;;;;;;;2.96;100.00;95289.28;4963250;28;20218;-81
2022/11/14 04:59:23;;;;;;;5.63;4.90;;;;;;;2.94;100.00;95291.16;4983273;28;20209;-82
2022/11/14 05:01:48;;;;;;;6.27;5.47;;;;;;;2.88;100.00;95291.56;4967124;28;20228;-82
2022/11/14 05:04:14;;;;;;;6.50;5.63;;;;;;;2.81;100.00;95292.00;4967879;28;20196;-81
2022/11/14 05:06:39;;;;;;;6.33;5.63;;;;;;;2.73;100.00;95293.44;4976942;28;20265;-81
2022/11/14 05:09:04;;;;;;;6.17;5.57;;;;;;;2.70;100.00;95280.84;4969235;28;20228;-81
2022/11/14 05:11:30;;;;;;;6.57;5.10;;;;;;;2.60;100.00;95274.72;4978677;28;20329;-81
2022/11/14 05:13:55;;;;;;;6.03;5.27;;;;;;;2.42;100.00;95271.69;4975003;28;20222;-81
2022/11/14 05:16:20;;;;;;;6.33;5.23;;;;;;;2.55;100.00;95260.47;4969225;28;20629;-81
2022/11/14 05:18:45;;;;;;;7.00;5.27;;;;;;;2.33;100.00;95267.19;4981396;28;20204;-81
2022/11/14 05:21:14;;;;;;;5.90;5.27;;;;;;;2.58;100.00;95262.00;4967347;28;20219;-80
2022/11/14 05:23:39;;;;;;;6.00;5.40;;;;;;;2.54;100.00;95258.00;4982308;28;20208;-81
2022/11/14 05:26:07;;;;;;;6.93;6.23;;;;;;;2.42;100.00;95275.06;4982177;28;20184;-81
2022/11/14 05:28:32;;;;;;;6.47;5.17;;;;;;;2.42;100.00;95272.50;4991738;28;20223;-83
2022/11/14 05:31:01;;;;;;;5.93;5.20;;;;;;;2.43;100.00;95276.69;4994934;28;20234;-82
2022/11/14 05:33:27;;;;;;;6.57;5.53;;;;;;;2.25;100.00;95272.81;4986792;28;20257;-81
2022/11/14 05:35:52;;;;;;;7.77;5.63;;;;;;;2.42;100.00;95274.25;4982293;28;20208;-82
2022/11/14 05:38:17;;;;;;;7.50;6.27;;;;;;;2.31;100.00;95272.41;4989383;28;20258;-83
2022/11/14 05:40:43;;;;;;;6.60;5.57;;;;;;;2.39;100.00;95280.41;4987809;28;20208;-82
2022/11/14 05:43:08;;;;;;;7.47;5.90;;;;;;;2.38;100.00;95273.63;4992142;28;20227;-83
2022/11/14 05:45:36;;;;;;;9.00;5.90;;;;;;;2.31;100.00;95269.84;4989192;28;20210;-82
2022/11/14 05:48:02;;;;;;;6.80;5.47;;;;;;;2.38;100.00;95268.50;4983526;28;20197;-83
2022/11/14 05:50:27;;;;;;;6.00;5.37;;;;;;;2.36;100.00;95264.41;5001459;28;20260;-81
2022/11/14 05:52:52;;;;;;;5.93;5.27;;;;;;;2.35;100.00;95263.59;4984453;28;20208;-82
2022/11/14 05:55:18;;;;;;;6.10;4.90;;;;;;;2.27;100.00;95260.72;4987168;28;20196;-83
2022/11/14 05:57:43;;;;;;;6.73;5.00;;;;;;;2.33;100.00;95260.31;4978657;28;20247;-83
2022/11/14 06:00:09;;;;;;;5.77;5.17;;;;;;;2.44;100.00;95257.81;4985525;28;20198;-83
2022/11/14 06:02:34;;;;;;;8.10;5.37;;;;;;;2.43;100.00;95251.06;4984381;28;20591;-82
2022/11/14 06:05:00;;;;;;;7.90;5.60;;;;;;;2.61;100.00;95258.41;4987086;28;20187;-82
2022/11/14 06:07:25;;;;;;;6.90;5.30;;;;;;;2.75;100.00;95240.34;4988955;28;20658;-82
2022/11/14 06:09:50;;;;;;;6.13;5.17;;;;;;;2.98;100.00;95247.19;4967097;28;20221;-82
2022/11/14 06:12:15;;;;;;;7.07;6.00;;;;;;;3.16;100.00;95252.78;4961319;28;20276;-82
2022/11/14 06:14:41;;;;;;;6.97;5.93;;;;;;;3.39;100.00;95246.00;4980982;28;20198;-81
2022/11/14 06:17:06;;;;;;;8.40;5.70;;;;;;;3.51;100.00;95246.84;4975824;28;20366;-82
2022/11/14 06:19:31;;;;;;;6.33;5.43;;;;;;;3.56;100.00;95253.28;4986788;28;20191;-83
2022/11/14 06:21:57;;;;;;;6.60;5.00;;;;;;;3.59;100.00;95252.25;4990693;28;20630;-82
2022/11/14 06:24:22;;;;;;;7.63;6.10;;;;;;;3.51;100.00;95260.50;4979970;28;20215;-82
2022/11/14 06:26:47;;;;;;;6.40;5.33;;;;;;;3.58;99.96;95264.25;4968569;28;20192;-82
2022/11/14 06:29:13;;;;;;;6.63;5.63;;;;;;;3.56;100.00;95273.00;4974212;28;20556;-82
2022/11/14 06:31:38;;;;;;;6.80;5.87;;;;;;;3.68;100.00;95272.91;4974943;28;20223;-81
2022/11/14 06:34:04;;;;;;;6.47;5.53;;;;;;;3.68;99.53;95280.63;4985698;28;20675;-82
2022/11/14 06:36:30;;;;;;;6.87;5.97;;;;;;;3.73;99.73;95280.31;4978571;28;21016;-80
2022/11/14 06:38:55;;;;;;;7.60;5.67;;;;;;;3.74;98.48;95287.06;5004406;28;20201;-81
2022/11/14 06:41:21;;;;;;;5.97;5.30;;;;;;;3.63;98.70;95290.44;4986317;28;20210;-81
2022/11/14 06:43:49;;;;;;;7.43;6.23;;;;;;;3.48;99.52;95291.53;4987408;28;20191;-79
2022/11/14 06:46:16;;;;;;;6.77;6.07;;;;;;;3.53;99.27;95299.72;4976398;28;20373;-81
2022/11/14 06:48:43;;;;;;;7.73;6.67;;;;;;;3.47;99.90;95294.22;4969742;28;20195;-80
2022/11/14 06:51:09;;;;;;;7.63;6.73;;;;;;;3.25;100.00;95308.56;4950956;28;20222;-80
2022/11/14 06:53:35;;;;;;;10.23;7.63;;;;;;;3.25;100.00;95308.56;4982972;28;20251;-81
2022/11/14 06:56:02;;;;;;;8.07;6.73;;;;;;;3.40;100.00;95309.25;4979013;28;20669;-80
2022/11/14 06:58:32;;;;;;;11.47;7.37;;;;;;;3.33;100.00;95310.59;4959603;28;20192;-80
2022/11/14 07:01:38;;;;;;;11.17;8.83;;;;;;;3.35;100.00;95314.69;4954016;28;20209;-79
2022/11/14 07:04:04;;;;;;;11.50;8.83;;;;;;;3.36;100.00;95312.97;4968138;28;20195;-81
2022/11/14 07:06:30;;;;;;;11.43;9.00;;;;;;;3.32;100.00;95316.66;4969457;28;20548;-80
2022/11/14 07:08:56;;;;;;;11.87;9.47;;;;;;;3.34;100.00;95312.22;4967881;28;20660;-80
2022/11/14 07:11:25;;;;;;;16.27;11.20;;;;;;;3.26;100.00;95309.38;4947205;28;20305;-81
2022/11/14 07:13:55;;;;;;;13.77;11.03;;;;;;;3.48;100.00;95306.94;4961654;28;20197;-80
2022/11/14 07:16:24;;;;;;;14.33;10.73;;;;;;;3.55;100.00;95307.31;4975123;28;20270;-80
2022/11/14 07:18:49;;;;;;;16.90;12.03;;;;;;;3.64;100.00;95315.19;4958897;28;20197;-81
2022/11/14 07:21:14;;;;;;;18.13;12.23;;;;;;;3.73;100.00;95311.13;4976926;28;20230;-81
2022/11/14 07:23:40;;;;;;;17.13;12.43;;;;;;;3.81;100.00;95311.38;4976004;28;20213;-80
2022/11/14 07:26:07;;;;;;;17.30;12.10;;;;;;;3.83;100.00;95311.28;4968108;28;20215;-80
2022/11/14 07:28:37;;;;;;;20.83;14.23;;;;;;;3.87;100.00;95322.94;4961326;28;20193;-81
2022/11/14 07:31:04;;;;;;;19.03;12.30;;;;;;;4.11;100.00;95310.03;4958536;28;20767;-80
2022/11/14 07:33:30;;;;;;;16.40;12.43;;;;;;;4.24;100.00;95305.63;4983221;28;20651;-80
2022/11/14 07:35:55;;;;;;;19.23;13.53;;;;;;;4.48;100.00;95308.09;4951040;28;20209;-81
2022/11/14 07:38:20;;;;;;;19.20;13.53;;;;;;;4.68;100.00;95304.00;4956695;28;20250;-81
2022/11/14 07:41:02;;;;;;;22.60;14.23;;;;;;;4.87;100.00;95298.28;4948423;28;20200;-79
2022/11/14 07:43:28;;;;;;;21.30;13.97;;;;;;;4.97;100.00;95300.00;4967427;28;20198;-79
2022/11/14 07:45:53;;;;;;;22.33;14.70;;;;;;;5.00;100.00;95309.25;4964749;28;20192;-81
2022/11/14 07:48:20;;;;;;;19.43;14.33;;;;;;;5.20;100.00;95307.69;4955398;28;20609;-80
2022/11/14 07:50:46;;;;;;;22.90;16.57;;;;;;;5.21;100.00;95310.16;4965158;28;20203;-80
2022/11/14 07:53:11;;;;;;;24.87;17.47;;;;;;;5.30;100.00;95313.72;4963759;28;20199;-80
2022/11/14 07:55:37;;;;;;;20.80;15.10;;;;;;;5.53;100.00;95317.06;4961055;28;20232;-79
2022/11/14 07:58:03;;;;;;;20.17;14.50;;;;;;;5.51;100.00;95314.63;4962897;28;20266;-78
2022/11/14 08:00:28;;;;;;;21.10;14.00;;;;;;;5.49;100.00;95323.44;4974173;28;20185;-79
2022/11/14 08:02:53;;;;;;;25.83;16.67;;;;;;;5.61;100.00;95319.84;4963381;28;20345;-80
2022/11/14 08:05:19;;;;;;;22.63;16.07;;;;;;;5.56;100.00;95329.69;4961997;28;20192;-80
2022/11/14 08:07:44;;;;;;;20.03;14.23;;;;;;;5.59;100.00;95319.97;4971941;28;20567;-79
2022/11/14 08:10:10;;;;;;;20.60;14.30;;;;;;;5.73;100.00;95328.34;4963995;28;20296;-80
2022/11/14 08:12:38;;;;;;;19.43;14.13;;;;;;;5.79;100.00;95326.09;4942510;28;20201;-80
2022/11/14 08:15:07;;;;;;;18.90;14.77;;;;;;;5.86;100.00;95323.84;4966202;28;20196;-80
2022/11/14 08:17:32;;;;;;;22.07;14.97;;;;;;;5.99;100.00;95326.28;4966498;28;20206;-80
2022/11/14 08:19:57;;;;;;;22.23;16.07;;;;;;;6.08;100.00;95318.59;4968672;28;20197;-80
2022/11/14 08:22:23;;;;;;;17.67;13.23;;;;;;;6.18;100.00;95322.09;4958242;28;20239;-80
2022/11/14 08:24:48;;;;;;;17.87;12.80;;;;;;;6.24;100.00;95328.47;4964998;28;20189;-80
2022/11/14 08:27:13;;;;;;;17.33;12.47;;;;;;;6.42;99.35;95329.53;4968932;28;20662;-80
2022/11/14 08:29:39;;;;;;;18.13;12.67;;;;;;;6.53;99.48;95331.22;4968406;28;20201;-79
2022/11/14 08:32:04;;;;;;;15.13;11.93;;;;;;;6.52;99.22;95332.16;4963963;28;20263;-79
2022/11/14 08:34:29;;;;;;;18.37;11.80;;;;;;;6.58;99.35;95343.75;4971597;28;20311;-80
2022/11/14 08:36:56;;;;;;;14.00;9.77;;;;;;;6.48;99.59;95336.78;4966844;28;20243;-79
2022/11/14 08:39:21;;;;;;;13.03;9.70;;;;;;;6.52;100.00;95335.56;4969820;28;20217;-80
2022/11/14 08:41:47;;;;;;;14.27;10.30;;;;;;;6.48;100.00;95338.53;4951135;28;20219;-80
2022/11/14 08:44:12;;;;;;;15.53;10.30;;;;;;;6.46;100.00;95340.44;4968256;28;20661;-80
2022/11/14 08:46:37;;;;;;;12.37;9.10;;;;;;;6.51;100.00;95340.84;4967411;28;20180;-81
2022/11/14 08:49:03;;;;;;;13.17;10.27;;;;;;;6.58;100.00;95348.91;4966771;28;20201;-81
2022/11/14 08:51:28;;;;;;;13.13;8.13;;;;;;;6.63;100.00;95344.19;4967725;28;20222;-79
2022/11/14 08:53:53;;;;;;;12.13;8.63;;;;;;;6.71;100.00;95342.56;4967483;28;20192;-79
2022/11/14 08:56:18;;;;;;;11.53;9.40;;;;;;;6.75;100.00;95340.56;4980341;28;20268;-79
2022/11/14 08:58:44;;;;;;;12.47;9.57;;;;;;;6.73;100.00;95351.03;4969615;28;20637;-80
2022/11/14 09:01:09;;;;;;;13.00;8.70;;;;;;;6.86;100.00;95342.25;4963283;28;20220;-80
2022/11/14 09:03:35;;;;;;;14.57;8.73;;;;;;;6.90;99.67;95348.78;4951420;28;20195;-79
2022/11/14 09:06:01;;;;;;;10.20;8.00;;;;;;;6.88;100.00;95343.75;4969560;28;20295;-80
2022/11/14 09:08:27;;;;;;;13.23;8.70;;;;;;;6.89;100.00;95340.25;4952048;28;20271;-80
2022/11/14 09:10:52;;;;;;;13.27;8.97;;;;;;;6.91;100.00;95346.09;4968079;28;20190;-79
2022/11/14 09:13:17;;;;;;;11.77;7.20;;;;;;;6.96;100.00;95345.69;4944279;28;20217;-80
2022/11/14 09:15:43;;;;;;;10.27;7.90;;;;;;;6.94;100.00;95345.81;4950588;28;20865;-79
2022/11/14 09:18:09;;;;;;;8.73;7.00;;;;;;;7.00;100.00;95347.88;4973699;28;20197;-80
2022/11/14 09:20:34;;;;;;;9.97;7.17;;;;;;;6.95;100.00;95346.63;4948871;28;20564;-80
2022/11/14 09:23:01;;;;;;;19.73;13.80;;;;;;;7.01;100.00;95349.50;4964538;28;20192;-81
2022/11/14 09:25:28;;;;;;;10.13;7.23;;;;;;;7.02;100.00;95351.13;4986421;28;20200;-80
2022/11/14 09:27:53;;;;;;;9.13;6.80;;;;;;;6.99;100.00;95351.41;4979679;28;20193;-79
2022/11/14 09:30:18;;;;;;;9.03;6.77;;;;;;;7.03;100.00;95350.19;4966602;28;20541;-79
2022/11/14 09:32:44;;;;;;;9.17;6.80;;;;;;;7.06;100.00;95354.25;4961870;28;20256;-79
2022/11/14 09:35:11;;;;;;;7.80;5.87;;;;;;;7.10;100.00;95351.31;4964622;28;20196;-80
2022/11/14 09:37:37;;;;;;;6.63;5.93;;;;;;;7.20;100.00;95353.09;4965907;28;20201;-81
2022/11/14 09:40:02;;;;;;;9.40;6.07;;;;;;;7.24;100.00;95351.88;4963512;28;20347;-79
2022/11/14 09:42:52;;;;;;;8.30;5.93;;;;;;;7.33;100.00;95356.25;4964503;28;20208;-77
2022/11/14 09:45:18;;;;;;;8.93;6.00;;;;;;;7.29;100.00;95352.31;4979146;28;20173;-77
2022/11/14 09:47:45;;;;;;;9.50;5.60;;;;;;;7.33;100.00;95349.34;4968809;28;20180;-77
2022/11/14 09:50:26;;;;;;;7.63;6.03;;;;;;;7.38;100.00;95354.09;4988491;28;20257;-76
2022/11/14 09:52:55;;;;;;;6.53;4.90;;;;;;;7.31;100.00;95350.41;4985415;28;20208;-77
2022/11/14 09:55:22;;;;;;;8.00;6.10;;;;;;;7.34;100.00;95352.75;4980627;28;20321;-80
2022/11/14 09:57:47;;;;;;;6.80;4.97;;;;;;;7.33;100.00;95351.09;4968331;28;20213;-79
2022/11/14 10:00:24;;;;;;;6.20;4.57;;;;;;;7.42;100.00;95350.31;4976191;28;20281;-81
2022/11/14 10:03:17;;;;;;;5.57;4.60;;;;;;;7.31;100.00;95350.41;4966774;28;20205;-80
2022/11/14 10:05:58;;;;;;;5.77;4.50;;;;;;;7.38;100.00;95356.69;4952068;28;20181;-80
2022/11/14 10:08:50;;;;;;;5.53;4.37;;;;;;;7.45;100.00;95352.63;4967916;28;20327;-81
2022/11/14 10:11:41;;;;;;;6.10;4.33;;;;;;;7.57;100.00;95351.53;4969545;28;20213;-80
2022/11/14 10:14:34;;;;;;;5.20;4.33;;;;;;;7.75;100.00;95353.47;4963079;28;20303;-80
2022/11/14 10:17:33;;;;;;;5.47;4.80;;;;;;;7.72;100.00;95343.41;4969248;28;20208;-80
2022/11/14 10:20:18;;;;;;;5.17;4.23;;;;;;;7.65;100.00;95345.72;4964392;28;20188;-81
2022/11/14 10:22:53;;;;;;;5.10;4.17;;;;;;;7.62;100.00;95349.38;4966695;28;20239;-81
2022/11/14 10:25:29;;;;;;;5.97;4.77;;;;;;;7.78;100.00;95345.47;4968543;28;20190;-81
2022/11/14 10:28:39;;;;;;;5.17;4.40;;;;;;;7.79;100.00;95344.50;4964562;28;20185;-82
2022/11/14 10:31:18;;;;;;;6.27;4.47;;;;;;;7.79;99.76;95344.50;4936332;29;20209;-80
2022/11/14 10:34:07;;;;;;;5.37;4.50;;;;;;;7.77;100.00;95339.44;4922114;29;20682;-80
2022/11/14 10:36:49;;;;;;;5.20;4.13;;;;;;;7.83;99.92;95336.34;4938609;29;20333;-80
2022/11/14 10:39:21;;;;;;;4.03;3.47;;;;;;;7.73;100.00;95334.69;4918338;29;20244;-81
2022/11/14 10:41:48;;;;;;;5.93;3.73;;;;;;;7.91;99.61;95338.25;4920786;29;20309;-81
2022/11/14 10:44:18;;;;;;;5.60;4.23;;;;;;;7.91;99.18;95333.88;4921801;29;20196;-81
2022/11/14 10:46:50;;;;;;;5.80;3.50;;;;;;;7.95;99.45;95337.00;4907665;29;20231;-81
2022/11/14 10:49:21;;;;;;;4.83;4.20;;;;;;;7.86;99.55;95335.22;4919737;29;20185;-81
2022/11/14 10:51:53;;;;;;;4.10;3.43;;;;;;;8.05;98.65;95330.09;4902359;29;20248;-81
2022/11/14 10:54:27;;;;;;;4.17;3.77;;;;;;;8.22;97.64;95333.75;4907752;29;20189;-81
2022/11/14 10:56:53;;;;;;;5.10;3.70;;;;;;;8.11;98.35;95342.44;4907048;29;20241;-80
2022/11/14 10:59:19;;;;;;;4.73;3.43;;;;;;;8.21;97.64;95335.50;4924244;29;20205;-82
2022/11/14 11:01:53;;;;;;;3.57;3.23;;;;;;;8.18;97.68;95340.94;4914937;29;20210;-81
2022/11/14 11:04:24;;;;;;;4.23;3.27;;;;;;;8.19;97.96;95321.06;4913012;28;20276;-80
2022/11/14 11:06:52;;;;;;;4.27;3.87;;;;;;;8.22;97.56;95325.97;4961572;28;20188;-80
2022/11/14 11:12:04;;;;;;;3.23;2.93;;;;;;;8.37;97.29;95309.06;4960903;28;20227;-81
2022/11/14 11:14:29;;;;;;;3.77;2.60;;;;;;;8.42;96.53;95316.44;4957913;28;20251;-80
2022/11/14 11:17:14;;;;;;;3.40;2.57;;;;;;;8.53;95.85;95311.09;4959973;28;20216;-80
2022/11/14 11:19:40;;;;;;;2.87;2.57;;;;;;;8.43;96.39;95307.72;4963745;28;20188;-80
2022/11/14 11:22:26;;;;;;;3.97;2.20;;;;;;;8.43;95.83;95320.66;4960288;28;20209;-80
2022/11/14 11:24:51;;;;;;;5.47;2.43;;;;;;;8.59;95.28;95307.94;4952262;28;20512;-81
2022/11/14 11:27:23;;;;;;;2.80;2.50;;;;;;;8.65;95.15;95307.38;4962302;28;20205;-80
2022/11/14 11:30:01;;;;;;;3.23;2.60;;;;;;;8.64;94.80;95303.16;4967304;28;20263;-79
2022/11/14 11:32:27;;;;;;;4.27;2.13;;;;;;;8.79;93.92;95304.31;4963481;28;20243;-80
2022/11/14 11:34:52;;;;;;;3.17;2.20;;;;;;;8.82;93.56;95310.16;4960920;28;20704;-80